sensor_id;sensor_type;location;lat;lon;timestamp;temperature;humidity
62904;DHT22;49000;50.698;13.322;2022-09-20T00:00:02;8.30;99.90
62904;DHT22;49000;50.698;13.322;2022-09-20T00:02:28;8.30;99.90
62904;DHT22;49000;50.698;13.322;2022-09-20T00:04:53;8.40;99.90
62904;DHT22;49000;50.698;13.322;2022-09-20T00:07:18;8.40;99.90
62904;DHT22;49000;50.698;13.322;2022-09-20T00:09:44;8.40;99.90
62904;DHT22;49000;50.698;13.322;2022-09-20T00:12:09;8.40;99.90
62904;DHT22;49000;50.698;13.322;2022-09-20T00:14:35;8.40;99.90
62904;DHT22;49000;50.698;13.322;2022-09-20T00:17:00;8.40;99.90
62904;DHT22;49000;50.698;13.322;2022-09-20T00:19:26;8.40;99.90
62904;DHT22;49000;50.698;13.322;2022-09-20T00:21:52;8.30;99.90
62904;DHT22;49000;50.698;13.322;2022-09-20T00:24:17;8.40;99.90
62904;DHT22;49000;50.698;13.322;2022-09-20T00:26:43;8.40;99.90
62904;DHT22;49000;50.698;13.322;2022-09-20T00:29:08;8.20;99.90
62904;DHT22;49000;50.698;13.322;2022-09-20T00:31:35;8.40;99.90
62904;DHT22;49000;50.698;13.322;2022-09-20T00:34:03;8.40;99.90
62904;DHT22;49000;50.698;13.322;2022-09-20T00:36:47;8.40;99.90
62904;DHT22;49000;50.698;13.322;2022-09-20T00:39:13;8.40;99.90
62904;DHT22;49000;50.698;13.322;2022-09-20T00:41:39;8.40;99.90
62904;DHT22;49000;50.698;13.322;2022-09-20T00:44:43;8.40;99.90
62904;DHT22;49000;50.698;13.322;2022-09-20T00:47:28;8.40;99.90
62904;DHT22;49000;50.698;13.322;2022-09-20T00:52:31;8.30;99.90
62904;DHT22;49000;50.698;13.322;2022-09-20T00:54:58;8.30;99.90
62904;DHT22;49000;50.698;13.322;2022-09-20T00:57:24;8.30;99.90
62904;DHT22;49000;50.698;13.322;2022-09-20T00:59:51;8.30;99.90
62904;DHT22;49000;50.698;13.322;2022-09-20T01:02:20;8.30;99.90
62904;DHT22;49000;50.698;13.322;2022-09-20T01:04:47;8.30;99.90
62904;DHT22;49000;50.698;13.322;2022-09-20T01:07:16;8.30;99.90
62904;DHT22;49000;50.698;13.322;2022-09-20T01:09:43;8.20;99.90
62904;DHT22;49000;50.698;13.322;2022-09-20T01:12:13;7.80;99.90
62904;DHT22;49000;50.698;13.322;2022-09-20T01:14:41;8.20;99.90
62904;DHT22;49000;50.698;13.322;2022-09-20T01:17:08;8.20;99.90
62904;DHT22;49000;50.698;13.322;2022-09-20T01:20:10;8.30;99.90
62904;DHT22;49000;50.698;13.322;2022-09-20T01:22:52;8.30;99.90
62904;DHT22;49000;50.698;13.322;2022-09-20T01:28:09;8.20;99.90
62904;DHT22;49000;50.698;13.322;2022-09-20T01:30:41;8.30;99.90
62904;DHT22;49000;50.698;13.322;2022-09-20T01:35:48;8.30;99.90
62904;DHT22;49000;50.698;13.322;2022-09-20T01:38:40;8.30;99.90
62904;DHT22;49000;50.698;13.322;2022-09-20T01:41:27;8.40;99.90
62904;DHT22;49000;50.698;13.322;2022-09-20T01:46:36;8.30;99.90
62904;DHT22;49000;50.698;13.322;2022-09-20T01:57:45;8.30;99.90
62904;DHT22;49000;50.698;13.322;2022-09-20T02:00:23;8.30;99.90
62904;DHT22;49000;50.698;13.322;2022-09-20T02:05:46;8.20;99.90
62904;DHT22;49000;50.698;13.322;2022-09-20T02:08:40;8.20;99.90
62904;DHT22;49000;50.698;13.322;2022-09-20T02:11:43;8.30;99.90
62904;DHT22;49000;50.698;13.322;2022-09-20T02:16:50;8.30;99.90
62904;DHT22;49000;50.698;13.322;2022-09-20T02:19:40;8.20;99.90
62904;DHT22;49000;50.698;13.322;2022-09-20T02:25:11;8.30;99.90
62904;DHT22;49000;50.698;13.322;2022-09-20T02:27:47;8.20;99.90
62904;DHT22;49000;50.698;13.322;2022-09-20T02:33:35;8.10;99.90
62904;DHT22;49000;50.698;13.322;2022-09-20T02:38:58;8.30;99.90
62904;DHT22;49000;50.698;13.322;2022-09-20T02:44:07;8.00;99.90
62904;DHT22;49000;50.698;13.322;2022-09-20T02:46:40;8.00;99.90
62904;DHT22;49000;50.698;13.322;2022-09-20T02:49:30;8.10;99.90
62904;DHT22;49000;50.698;13.322;2022-09-20T02:52:10;8.10;99.90
62904;DHT22;49000;50.698;13.322;2022-09-20T02:57:53;8.30;99.90
62904;DHT22;49000;50.698;13.322;2022-09-20T03:03:35;8.30;99.90
62904;DHT22;49000;50.698;13.322;2022-09-20T03:06:24;8.00;99.90
62904;DHT22;49000;50.698;13.322;2022-09-20T03:09:24;8.00;99.90
62904;DHT22;49000;50.698;13.322;2022-09-20T03:12:32;8.20;99.90
62904;DHT22;49000;50.698;13.322;2022-09-20T03:17:49;8.00;99.90
62904;DHT22;49000;50.698;13.322;2022-09-20T03:20:22;8.00;99.90
62904;DHT22;49000;50.698;13.322;2022-09-20T03:25:39;7.90;99.90
62904;DHT22;49000;50.698;13.322;2022-09-20T03:28:23;8.00;99.90
62904;DHT22;49000;50.698;13.322;2022-09-20T03:31:15;7.90;99.90
62904;DHT22;49000;50.698;13.322;2022-09-20T03:33:54;8.00;99.90
62904;DHT22;49000;50.698;13.322;2022-09-20T03:42:17;8.00;99.90
62904;DHT22;49000;50.698;13.322;2022-09-20T03:53:00;8.20;99.90
62904;DHT22;49000;50.698;13.322;2022-09-20T03:55:52;8.10;99.90
62904;DHT22;49000;50.698;13.322;2022-09-20T03:58:40;8.10;99.90
62904;DHT22;49000;50.698;13.322;2022-09-20T04:01:31;8.20;99.90
62904;DHT22;49000;50.698;13.322;2022-09-20T04:04:22;8.00;99.90
62904;DHT22;49000;50.698;13.322;2022-09-20T04:07:31;8.00;99.90
62904;DHT22;49000;50.698;13.322;2022-09-20T04:16:12;8.00;99.90
62904;DHT22;49000;50.698;13.322;2022-09-20T04:19:00;8.00;99.90
62904;DHT22;49000;50.698;13.322;2022-09-20T04:21:36;8.00;99.90
62904;DHT22;49000;50.698;13.322;2022-09-20T04:26:43;7.80;99.90
62904;DHT22;49000;50.698;13.322;2022-09-20T04:32:29;7.70;99.90
62904;DHT22;49000;50.698;13.322;2022-09-20T04:37:46;7.60;99.90
62904;DHT22;49000;50.698;13.322;2022-09-20T04:43:15;7.60;99.90
62904;DHT22;49000;50.698;13.322;2022-09-20T04:49:05;7.50;99.90
62904;DHT22;49000;50.698;13.322;2022-09-20T05:00:23;7.70;99.90
62904;DHT22;49000;50.698;13.322;2022-09-20T05:08:49;7.50;99.90
62904;DHT22;49000;50.698;13.322;2022-09-20T05:11:50;7.50;99.90
62904;DHT22;49000;50.698;13.322;2022-09-20T05:14:39;7.60;99.90
62904;DHT22;49000;50.698;13.322;2022-09-20T05:17:14;7.60;99.90
62904;DHT22;49000;50.698;13.322;2022-09-20T05:23:11;7.60;99.90
62904;DHT22;49000;50.698;13.322;2022-09-20T05:25:50;7.20;99.90
62904;DHT22;49000;50.698;13.322;2022-09-20T05:33:46;7.80;99.90
62904;DHT22;49000;50.698;13.322;2022-09-20T05:36:30;7.60;99.90
62904;DHT22;49000;50.698;13.322;2022-09-20T05:39:43;7.70;99.90
62904;DHT22;49000;50.698;13.322;2022-09-20T05:42:24;7.80;99.90
62904;DHT22;49000;50.698;13.322;2022-09-20T05:45:05;7.70;99.90
62904;DHT22;49000;50.698;13.322;2022-09-20T05:47:49;7.90;99.90
62904;DHT22;49000;50.698;13.322;2022-09-20T05:50:46;7.70;99.90
62904;DHT22;49000;50.698;13.322;2022-09-20T06:02:13;7.70;99.90
62904;DHT22;49000;50.698;13.322;2022-09-20T06:10:15;7.80;99.90
62904;DHT22;49000;50.698;13.322;2022-09-20T06:18:29;8.00;99.90
62904;DHT22;49000;50.698;13.322;2022-09-20T06:21:03;8.00;99.90
62904;DHT22;49000;50.698;13.322;2022-09-20T06:23:34;8.00;99.90
62904;DHT22;49000;50.698;13.322;2022-09-20T06:26:08;8.00;99.90
62904;DHT22;49000;50.698;13.322;2022-09-20T06:28:40;8.00;99.90
62904;DHT22;49000;50.698;13.322;2022-09-20T06:31:07;8.00;99.90
62904;DHT22;49000;50.698;13.322;2022-09-20T06:33:40;7.60;99.90
62904;DHT22;49000;50.698;13.322;2022-09-20T06:42:10;8.30;99.90
62904;DHT22;49000;50.698;13.322;2022-09-20T06:44:36;8.40;99.90
62904;DHT22;49000;50.698;13.322;2022-09-20T06:47:10;8.40;99.90
62904;DHT22;49000;50.698;13.322;2022-09-20T06:49:36;8.40;99.90
62904;DHT22;49000;50.698;13.322;2022-09-20T06:52:05;8.40;99.90
62904;DHT22;49000;50.698;13.322;2022-09-20T06:54:31;8.40;99.90
62904;DHT22;49000;50.698;13.322;2022-09-20T06:56:59;8.40;99.90
62904;DHT22;49000;50.698;13.322;2022-09-20T06:59:27;8.40;99.90
62904;DHT22;49000;50.698;13.322;2022-09-20T07:01:52;8.40;99.90
62904;DHT22;49000;50.698;13.322;2022-09-20T07:04:18;8.50;99.90
62904;DHT22;49000;50.698;13.322;2022-09-20T07:06:43;8.50;99.90
62904;DHT22;49000;50.698;13.322;2022-09-20T07:09:10;8.50;99.90
62904;DHT22;49000;50.698;13.322;2022-09-20T07:11:36;8.40;99.90
62904;DHT22;49000;50.698;13.322;2022-09-20T07:14:01;8.40;99.90
62904;DHT22;49000;50.698;13.322;2022-09-20T07:16:27;8.40;99.90
62904;DHT22;49000;50.698;13.322;2022-09-20T07:18:53;8.40;99.90
62904;DHT22;49000;50.698;13.322;2022-09-20T07:21:20;8.50;99.90
62904;DHT22;49000;50.698;13.322;2022-09-20T07:23:45;8.60;99.90
62904;DHT22;49000;50.698;13.322;2022-09-20T07:26:19;8.50;99.90
62904;DHT22;49000;50.698;13.322;2022-09-20T07:28:45;8.40;99.90
62904;DHT22;49000;50.698;13.322;2022-09-20T07:31:10;8.30;99.90
62904;DHT22;49000;50.698;13.322;2022-09-20T07:33:36;8.00;99.90
62904;DHT22;49000;50.698;13.322;2022-09-20T07:36:01;8.30;99.90
62904;DHT22;49000;50.698;13.322;2022-09-20T07:38:27;8.40;99.90
62904;DHT22;49000;50.698;13.322;2022-09-20T07:40:56;8.50;99.90
62904;DHT22;49000;50.698;13.322;2022-09-20T07:43:23;8.60;99.90
62904;DHT22;49000;50.698;13.322;2022-09-20T07:45:50;8.70;99.90
62904;DHT22;49000;50.698;13.322;2022-09-20T07:48:20;8.70;99.90
62904;DHT22;49000;50.698;13.322;2022-09-20T07:51:12;8.80;99.90
62904;DHT22;49000;50.698;13.322;2022-09-20T07:53:37;8.80;99.90
62904;DHT22;49000;50.698;13.322;2022-09-20T07:56:10;8.80;99.90
62904;DHT22;49000;50.698;13.322;2022-09-20T07:58:36;8.90;99.90
62904;DHT22;49000;50.698;13.322;2022-09-20T08:01:05;9.00;99.90
62904;DHT22;49000;50.698;13.322;2022-09-20T08:03:31;9.20;99.90
62904;DHT22;49000;50.698;13.322;2022-09-20T08:06:09;9.20;99.90
62904;DHT22;49000;50.698;13.322;2022-09-20T08:08:36;9.20;99.90
62904;DHT22;49000;50.698;13.322;2022-09-20T08:11:05;9.10;99.90
62904;DHT22;49000;50.698;13.322;2022-09-20T08:13:35;9.10;99.90
62904;DHT22;49000;50.698;13.322;2022-09-20T08:16:02;9.10;99.90
62904;DHT22;49000;50.698;13.322;2022-09-20T08:18:28;9.10;99.90
62904;DHT22;49000;50.698;13.322;2022-09-20T08:20:53;9.10;99.90
62904;DHT22;49000;50.698;13.322;2022-09-20T08:23:19;9.60;99.90
62904;DHT22;49000;50.698;13.322;2022-09-20T08:25:45;10.00;99.90
62904;DHT22;49000;50.698;13.322;2022-09-20T08:28:12;10.40;99.90
62904;DHT22;49000;50.698;13.322;2022-09-20T08:30:38;10.30;99.90
62904;DHT22;49000;50.698;13.322;2022-09-20T08:33:03;10.30;99.90
62904;DHT22;49000;50.698;13.322;2022-09-20T08:35:29;10.40;99.90
62904;DHT22;49000;50.698;13.322;2022-09-20T08:37:55;10.30;99.90
62904;DHT22;49000;50.698;13.322;2022-09-20T08:40:22;10.10;99.90
62904;DHT22;49000;50.698;13.322;2022-09-20T08:42:49;9.80;99.90
62904;DHT22;49000;50.698;13.322;2022-09-20T08:45:17;9.50;99.90
62904;DHT22;49000;50.698;13.322;2022-09-20T08:47:57;9.40;99.90
62904;DHT22;49000;50.698;13.322;2022-09-20T08:50:24;9.30;99.90
62904;DHT22;49000;50.698;13.322;2022-09-20T08:52:53;9.40;99.90
62904;DHT22;49000;50.698;13.322;2022-09-20T08:55:25;9.60;99.90
62904;DHT22;49000;50.698;13.322;2022-09-20T08:57:58;9.60;99.90
62904;DHT22;49000;50.698;13.322;2022-09-20T09:00:33;9.70;99.90
62904;DHT22;49000;50.698;13.322;2022-09-20T09:03:04;9.60;99.90
62904;DHT22;49000;50.698;13.322;2022-09-20T09:05:56;9.70;99.90
62904;DHT22;49000;50.698;13.322;2022-09-20T09:08:42;9.90;99.90
62904;DHT22;49000;50.698;13.322;2022-09-20T09:11:15;9.80;99.90
62904;DHT22;49000;50.698;13.322;2022-09-20T09:13:54;9.80;99.90
62904;DHT22;49000;50.698;13.322;2022-09-20T09:16:23;10.10;99.90
62904;DHT22;49000;50.698;13.322;2022-09-20T09:18:49;10.20;99.90
62904;DHT22;49000;50.698;13.322;2022-09-20T09:21:26;10.00;99.90
62904;DHT22;49000;50.698;13.322;2022-09-20T09:24:11;10.20;99.90
62904;DHT22;49000;50.698;13.322;2022-09-20T09:26:40;10.30;99.90
62904;DHT22;49000;50.698;13.322;2022-09-20T09:29:22;10.40;99.90
62904;DHT22;49000;50.698;13.322;2022-09-20T09:31:50;10.40;99.90
62904;DHT22;49000;50.698;13.322;2022-09-20T09:34:36;10.50;99.90
62904;DHT22;49000;50.698;13.322;2022-09-20T09:37:03;10.50;99.90
62904;DHT22;49000;50.698;13.322;2022-09-20T09:39:35;10.70;99.90
62904;DHT22;49000;50.698;13.322;2022-09-20T09:42:20;10.80;99.90
62904;DHT22;49000;50.698;13.322;2022-09-20T09:44:46;10.80;99.90
62904;DHT22;49000;50.698;13.322;2022-09-20T09:47:27;10.70;99.90
62904;DHT22;49000;50.698;13.322;2022-09-20T09:49:58;10.60;99.90
62904;DHT22;49000;50.698;13.322;2022-09-20T09:52:24;10.70;99.90
62904;DHT22;49000;50.698;13.322;2022-09-20T09:54:54;10.80;99.90
62904;DHT22;49000;50.698;13.322;2022-09-20T10:00:10;10.30;99.90
62904;DHT22;49000;50.698;13.322;2022-09-20T10:03:06;10.10;99.90
62904;DHT22;49000;50.698;13.322;2022-09-20T10:06:49;9.90;99.90
62904;DHT22;49000;50.698;13.322;2022-09-20T10:09:07;10.10;99.90
62904;DHT22;49000;50.698;13.322;2022-09-20T10:12:14;10.30;99.90
62904;DHT22;49000;50.698;13.322;2022-09-20T10:15:14;10.50;99.90
62904;DHT22;49000;50.698;13.322;2022-09-20T10:17:55;10.50;99.90
62904;DHT22;49000;50.698;13.322;2022-09-20T10:23:51;10.90;99.90
62904;DHT22;49000;50.698;13.322;2022-09-20T10:35:28;10.00;99.90
62904;DHT22;49000;50.698;13.322;2022-09-20T10:43:54;11.10;99.90
62904;DHT22;49000;50.698;13.322;2022-09-20T10:49:34;11.20;99.90
62904;DHT22;49000;50.698;13.322;2022-09-20T11:01:08;11.50;99.90
62904;DHT22;49000;50.698;13.322;2022-09-20T11:04:10;11.30;99.90
62904;DHT22;49000;50.698;13.322;2022-09-20T11:06:52;10.80;99.90
62904;DHT22;49000;50.698;13.322;2022-09-20T11:09:23;10.50;99.90
62904;DHT22;49000;50.698;13.322;2022-09-20T11:11:55;10.40;99.90
62904;DHT22;49000;50.698;13.322;2022-09-20T11:14:34;10.20;99.90
62904;DHT22;49000;50.698;13.322;2022-09-20T11:17:17;10.00;99.90
62904;DHT22;49000;50.698;13.322;2022-09-20T11:20:06;9.90;99.90
62904;DHT22;49000;50.698;13.322;2022-09-20T11:23:05;10.20;99.90
62904;DHT22;49000;50.698;13.322;2022-09-20T11:25:40;10.40;99.90
62904;DHT22;49000;50.698;13.322;2022-09-20T11:30:55;10.50;99.90
62904;DHT22;49000;50.698;13.322;2022-09-20T11:36:29;10.90;99.90
62904;DHT22;49000;50.698;13.322;2022-09-20T11:38:59;11.20;99.90
62904;DHT22;49000;50.698;13.322;2022-09-20T11:41:29;11.30;99.90
62904;DHT22;49000;50.698;13.322;2022-09-20T11:44:04;11.40;99.90
62904;DHT22;49000;50.698;13.322;2022-09-20T11:46:49;11.60;99.90
62904;DHT22;49000;50.698;13.322;2022-09-20T11:49:27;12.00;99.90
62904;DHT22;49000;50.698;13.322;2022-09-20T11:52:15;12.50;99.90
62904;DHT22;49000;50.698;13.322;2022-09-20T11:57:20;13.00;99.90
62904;DHT22;49000;50.698;13.322;2022-09-20T11:59:53;13.00;99.90
62904;DHT22;49000;50.698;13.322;2022-09-20T12:02:30;13.50;99.90
62904;DHT22;49000;50.698;13.322;2022-09-20T12:04:58;13.50;99.90
62904;DHT22;49000;50.698;13.322;2022-09-20T12:07:40;12.90;99.90
62904;DHT22;49000;50.698;13.322;2022-09-20T12:12:47;11.70;99.90
62904;DHT22;49000;50.698;13.322;2022-09-20T12:15:25;11.70;99.90
62904;DHT22;49000;50.698;13.322;2022-09-20T12:28:51;13.60;99.90
62904;DHT22;49000;50.698;13.322;2022-09-20T12:36:41;14.50;99.90
62904;DHT22;49000;50.698;13.322;2022-09-20T12:57:59;12.30;99.90
62904;DHT22;49000;50.698;13.322;2022-09-20T13:00:38;12.40;99.90
62904;DHT22;49000;50.698;13.322;2022-09-20T13:14:00;13.00;99.90
62904;DHT22;49000;50.698;13.322;2022-09-20T13:19:14;13.10;99.90
62904;DHT22;49000;50.698;13.322;2022-09-20T13:24:41;13.50;99.90
62904;DHT22;49000;50.698;13.322;2022-09-20T13:27:12;13.60;99.90
62904;DHT22;49000;50.698;13.322;2022-09-20T13:29:41;13.50;99.90
62904;DHT22;49000;50.698;13.322;2022-09-20T13:32:23;13.40;99.90
62904;DHT22;49000;50.698;13.322;2022-09-20T13:43:11;12.80;99.90
62904;DHT22;49000;50.698;13.322;2022-09-20T13:45:41;13.00;99.90
62904;DHT22;49000;50.698;13.322;2022-09-20T13:48:08;13.10;99.90
62904;DHT22;49000;50.698;13.322;2022-09-20T13:50:34;13.20;99.90
62904;DHT22;49000;50.698;13.322;2022-09-20T13:53:13;13.20;99.90
62904;DHT22;49000;50.698;13.322;2022-09-20T13:55:41;13.20;99.90
62904;DHT22;49000;50.698;13.322;2022-09-20T13:58:25;13.00;99.90
62904;DHT22;49000;50.698;13.322;2022-09-20T14:00:58;13.20;99.90
62904;DHT22;49000;50.698;13.322;2022-09-20T14:03:25;13.30;99.90
62904;DHT22;49000;50.698;13.322;2022-09-20T14:06:00;13.40;99.90
62904;DHT22;49000;50.698;13.322;2022-09-20T14:08:36;13.30;99.90
62904;DHT22;49000;50.698;13.322;2022-09-20T14:11:04;13.60;99.90
62904;DHT22;49000;50.698;13.322;2022-09-20T14:13:34;14.00;98.50
62904;DHT22;49000;50.698;13.322;2022-09-20T14:16:01;14.50;91.40
62904;DHT22;49000;50.698;13.322;2022-09-20T14:18:27;15.00;88.10
62904;DHT22;49000;50.698;13.322;2022-09-20T14:20:53;15.50;60.40
62904;DHT22;49000;50.698;13.322;2022-09-20T14:23:20;15.90;35.40
62904;DHT22;49000;50.698;13.322;2022-09-20T14:26:19;16.10;25.00
62904;DHT22;49000;50.698;13.322;2022-09-20T14:28:45;16.40;29.90
62904;DHT22;49000;50.698;13.322;2022-09-20T14:31:27;16.70;22.10
62904;DHT22;49000;50.698;13.322;2022-09-20T14:33:57;16.20;20.50
62904;DHT22;49000;50.698;13.322;2022-09-20T14:36:25;15.70;21.40
62904;DHT22;49000;50.698;13.322;2022-09-20T14:38:54;15.40;27.60
62904;DHT22;49000;50.698;13.322;2022-09-20T14:41:33;14.90;22.30
62904;DHT22;49000;50.698;13.322;2022-09-20T14:44:00;14.50;26.40
62904;DHT22;49000;50.698;13.322;2022-09-20T14:46:37;14.20;30.70
62904;DHT22;49000;50.698;13.322;2022-09-20T14:51:53;14.10;33.90
62904;DHT22;49000;50.698;13.322;2022-09-20T14:54:35;13.60;39.40
62904;DHT22;49000;50.698;13.322;2022-09-20T14:57:01;13.50;43.80
62904;DHT22;49000;50.698;13.322;2022-09-20T14:59:34;13.30;45.20
62904;DHT22;49000;50.698;13.322;2022-09-20T15:02:11;13.10;48.90
62904;DHT22;49000;50.698;13.322;2022-09-20T15:04:39;12.90;56.10
62904;DHT22;49000;50.698;13.322;2022-09-20T15:07:07;13.00;56.30
62904;DHT22;49000;50.698;13.322;2022-09-20T15:09:34;13.00;57.40
62904;DHT22;49000;50.698;13.322;2022-09-20T15:12:05;13.00;60.00
62904;DHT22;49000;50.698;13.322;2022-09-20T15:14:31;13.10;60.40
62904;DHT22;49000;50.698;13.322;2022-09-20T15:16:58;12.90;51.20
62904;DHT22;49000;50.698;13.322;2022-09-20T15:19:27;12.70;55.60
62904;DHT22;49000;50.698;13.322;2022-09-20T15:21:54;12.80;55.10
62904;DHT22;49000;50.698;13.322;2022-09-20T15:24:20;12.90;53.10
62904;DHT22;49000;50.698;13.322;2022-09-20T15:26:45;13.00;55.90
62904;DHT22;49000;50.698;13.322;2022-09-20T15:29:17;13.10;49.50
62904;DHT22;49000;50.698;13.322;2022-09-20T15:31:44;13.20;49.30
62904;DHT22;49000;50.698;13.322;2022-09-20T15:34:10;13.20;51.50
62904;DHT22;49000;50.698;13.322;2022-09-20T15:36:38;13.30;53.20
62904;DHT22;49000;50.698;13.322;2022-09-20T15:39:03;13.20;51.40
62904;DHT22;49000;50.698;13.322;2022-09-20T15:41:29;13.20;51.30
62904;DHT22;49000;50.698;13.322;2022-09-20T15:43:55;13.20;53.80
62904;DHT22;49000;50.698;13.322;2022-09-20T15:46:23;13.10;54.00
62904;DHT22;49000;50.698;13.322;2022-09-20T15:48:54;13.00;54.70
62904;DHT22;49000;50.698;13.322;2022-09-20T15:51:23;13.00;56.30
62904;DHT22;49000;50.698;13.322;2022-09-20T15:53:58;13.00;59.40
62904;DHT22;49000;50.698;13.322;2022-09-20T15:56:30;13.10;58.60
62904;DHT22;49000;50.698;13.322;2022-09-20T15:59:02;13.00;54.90
62904;DHT22;49000;50.698;13.322;2022-09-20T16:01:31;13.10;56.70
62904;DHT22;49000;50.698;13.322;2022-09-20T16:03:57;13.20;54.10
62904;DHT22;49000;50.698;13.322;2022-09-20T16:06:22;13.20;58.40
62904;DHT22;49000;50.698;13.322;2022-09-20T16:08:49;13.10;55.40
62904;DHT22;49000;50.698;13.322;2022-09-20T16:11:16;13.00;58.70
62904;DHT22;49000;50.698;13.322;2022-09-20T16:13:42;13.00;66.10
62904;DHT22;49000;50.698;13.322;2022-09-20T16:16:09;13.40;61.00
62904;DHT22;49000;50.698;13.322;2022-09-20T16:18:37;13.70;67.00
62904;DHT22;49000;50.698;13.322;2022-09-20T16:21:21;13.90;71.40
62904;DHT22;49000;50.698;13.322;2022-09-20T16:23:49;14.00;68.50
62904;DHT22;49000;50.698;13.322;2022-09-20T16:26:15;13.80;51.30
62904;DHT22;49000;50.698;13.322;2022-09-20T16:28:42;13.50;40.80
62904;DHT22;49000;50.698;13.322;2022-09-20T16:31:42;13.20;40.60
62904;DHT22;49000;50.698;13.322;2022-09-20T16:34:17;12.80;40.30
62904;DHT22;49000;50.698;13.322;2022-09-20T16:36:47;12.60;42.10
62904;DHT22;49000;50.698;13.322;2022-09-20T16:39:14;12.60;47.60
62904;DHT22;49000;50.698;13.322;2022-09-20T16:41:40;12.50;50.10
62904;DHT22;49000;50.698;13.322;2022-09-20T16:44:06;12.50;49.80
62904;DHT22;49000;50.698;13.322;2022-09-20T16:46:32;12.20;45.70
62904;DHT22;49000;50.698;13.322;2022-09-20T16:49:03;12.00;49.40
62904;DHT22;49000;50.698;13.322;2022-09-20T16:51:30;11.90;53.50
62904;DHT22;49000;50.698;13.322;2022-09-20T16:53:59;11.90;55.00
62904;DHT22;49000;50.698;13.322;2022-09-20T16:56:27;11.90;59.10
62904;DHT22;49000;50.698;13.322;2022-09-20T16:58:56;11.90;58.60
62904;DHT22;49000;50.698;13.322;2022-09-20T17:01:22;11.90;58.40
62904;DHT22;49000;50.698;13.322;2022-09-20T17:03:47;11.80;57.10
62904;DHT22;49000;50.698;13.322;2022-09-20T17:06:15;11.80;59.60
62904;DHT22;49000;50.698;13.322;2022-09-20T17:08:41;11.70;61.70
62904;DHT22;49000;50.698;13.322;2022-09-20T17:11:11;11.70;63.00
62904;DHT22;49000;50.698;13.322;2022-09-20T17:13:39;11.50;62.40
62904;DHT22;49000;50.698;13.322;2022-09-20T17:16:08;11.30;64.60
62904;DHT22;49000;50.698;13.322;2022-09-20T17:18:34;11.30;67.20
62904;DHT22;49000;50.698;13.322;2022-09-20T17:21:04;11.20;66.30
62904;DHT22;49000;50.698;13.322;2022-09-20T17:23:30;11.00;64.70
62904;DHT22;49000;50.698;13.322;2022-09-20T17:26:06;10.90;66.20
62904;DHT22;49000;50.698;13.322;2022-09-20T17:28:37;10.80;67.60
62904;DHT22;49000;50.698;13.322;2022-09-20T17:31:04;10.70;67.00
62904;DHT22;49000;50.698;13.322;2022-09-20T17:33:32;10.60;68.20
62904;DHT22;49000;50.698;13.322;2022-09-20T17:35:57;10.50;67.80
62904;DHT22;49000;50.698;13.322;2022-09-20T17:38:28;10.50;68.60
62904;DHT22;49000;50.698;13.322;2022-09-20T17:41:03;10.30;73.40
62904;DHT22;49000;50.698;13.322;2022-09-20T17:43:31;10.30;74.60
62904;DHT22;49000;50.698;13.322;2022-09-20T17:48:30;10.20;76.00
62904;DHT22;49000;50.698;13.322;2022-09-20T17:50:58;10.10;75.60
62904;DHT22;49000;50.698;13.322;2022-09-20T17:53:24;10.00;78.80
62904;DHT22;49000;50.698;13.322;2022-09-20T17:55:55;9.90;83.90
62904;DHT22;49000;50.698;13.322;2022-09-20T17:58:22;9.80;83.10
62904;DHT22;49000;50.698;13.322;2022-09-20T18:00:48;9.70;84.80
62904;DHT22;49000;50.698;13.322;2022-09-20T18:03:14;9.60;87.90
62904;DHT22;49000;50.698;13.322;2022-09-20T18:05:40;9.50;89.60
62904;DHT22;49000;50.698;13.322;2022-09-20T18:08:05;9.50;91.00
62904;DHT22;49000;50.698;13.322;2022-09-20T18:10:31;9.40;91.90
62904;DHT22;49000;50.698;13.322;2022-09-20T18:12:57;9.30;91.80
62904;DHT22;49000;50.698;13.322;2022-09-20T18:15:22;9.30;91.60
62904;DHT22;49000;50.698;13.322;2022-09-20T18:17:48;9.20;90.70
62904;DHT22;49000;50.698;13.322;2022-09-20T18:20:14;9.10;89.80
62904;DHT22;49000;50.698;13.322;2022-09-20T18:22:39;9.00;90.20
62904;DHT22;49000;50.698;13.322;2022-09-20T18:25:05;8.90;90.60
62904;DHT22;49000;50.698;13.322;2022-09-20T18:27:30;8.80;90.40
62904;DHT22;49000;50.698;13.322;2022-09-20T18:29:58;8.80;90.20
62904;DHT22;49000;50.698;13.322;2022-09-20T18:32:24;8.70;90.60
62904;DHT22;49000;50.698;13.322;2022-09-20T18:34:51;8.60;90.80
62904;DHT22;49000;50.698;13.322;2022-09-20T18:37:16;8.50;91.50
62904;DHT22;49000;50.698;13.322;2022-09-20T18:39:42;8.40;92.70
62904;DHT22;49000;50.698;13.322;2022-09-20T18:42:07;8.40;93.60
62904;DHT22;49000;50.698;13.322;2022-09-20T18:44:33;8.40;98.80
62904;DHT22;49000;50.698;13.322;2022-09-20T18:47:03;8.30;99.90
62904;DHT22;49000;50.698;13.322;2022-09-20T18:49:29;8.30;99.90
62904;DHT22;49000;50.698;13.322;2022-09-20T18:51:55;8.20;99.90
62904;DHT22;49000;50.698;13.322;2022-09-20T18:54:21;8.10;99.90
62904;DHT22;49000;50.698;13.322;2022-09-20T18:56:48;8.10;99.90
62904;DHT22;49000;50.698;13.322;2022-09-20T18:59:22;8.10;99.90
62904;DHT22;49000;50.698;13.322;2022-09-20T19:04:48;8.10;99.90
62904;DHT22;49000;50.698;13.322;2022-09-20T19:07:46;8.00;99.90
62904;DHT22;49000;50.698;13.322;2022-09-20T19:10:21;8.00;99.90
62904;DHT22;49000;50.698;13.322;2022-09-20T19:13:00;8.00;99.90
62904;DHT22;49000;50.698;13.322;2022-09-20T19:15:35;8.00;99.90
62904;DHT22;49000;50.698;13.322;2022-09-20T19:23:49;8.00;99.90
62904;DHT22;49000;50.698;13.322;2022-09-20T19:26:24;8.00;99.90
62904;DHT22;49000;50.698;13.322;2022-09-20T19:28:52;7.90;99.90
62904;DHT22;49000;50.698;13.322;2022-09-20T19:31:28;7.90;99.90
62904;DHT22;49000;50.698;13.322;2022-09-20T19:33:55;7.90;99.90
62904;DHT22;49000;50.698;13.322;2022-09-20T19:36:22;7.90;99.90
62904;DHT22;49000;50.698;13.322;2022-09-20T19:39:13;7.90;99.90
62904;DHT22;49000;50.698;13.322;2022-09-20T19:50:44;7.90;99.90
62904;DHT22;49000;50.698;13.322;2022-09-20T19:53:11;7.90;99.90
62904;DHT22;49000;50.698;13.322;2022-09-20T19:55:37;7.80;99.90
62904;DHT22;49000;50.698;13.322;2022-09-20T19:58:03;7.80;99.90
62904;DHT22;49000;50.698;13.322;2022-09-20T20:00:29;7.70;99.90
62904;DHT22;49000;50.698;13.322;2022-09-20T20:02:56;7.70;99.90
62904;DHT22;49000;50.698;13.322;2022-09-20T20:05:22;7.70;99.90
62904;DHT22;49000;50.698;13.322;2022-09-20T20:08:15;7.70;99.90
62904;DHT22;49000;50.698;13.322;2022-09-20T20:11:00;7.70;99.90
62904;DHT22;49000;50.698;13.322;2022-09-20T20:16:59;7.60;99.90
62904;DHT22;49000;50.698;13.322;2022-09-20T20:19:50;7.60;99.90
62904;DHT22;49000;50.698;13.322;2022-09-20T20:22:51;7.60;99.90